地図

経路データ

SID SEASON NUMBER BASIN SUBBASIN NAME ISO_TIME NATURE LAT LON WMO_WIND WMO_PRES WMO_AGENCY TRACK_TYPE DIST2LAND LANDFALL IFLAG USA_AGENCY USA_ATCF_ID USA_LAT USA_LON USA_RECORD USA_STATUS USA_WIND USA_PRES USA_SSHS USA_R34_NE USA_R34_SE USA_R34_SW USA_R34_NW USA_R50_NE USA_R50_SE USA_R50_SW USA_R50_NW USA_R64_NE USA_R64_SE USA_R64_SW USA_R64_NW USA_POCI USA_ROCI USA_RMW USA_EYE TOKYO_LAT TOKYO_LON TOKYO_GRADE TOKYO_WIND TOKYO_PRES TOKYO_R50_DIR TOKYO_R50_LONG TOKYO_R50_SHORT TOKYO_R30_DIR TOKYO_R30_LONG TOKYO_R30_SHORT TOKYO_LAND CMA_LAT CMA_LON CMA_CAT CMA_WIND CMA_PRES HKO_LAT HKO_LON HKO_CAT HKO_WIND HKO_PRES NEWDELHI_LAT NEWDELHI_LON NEWDELHI_GRADE NEWDELHI_WIND NEWDELHI_PRES NEWDELHI_CI NEWDELHI_DP NEWDELHI_POCI REUNION_LAT REUNION_LON REUNION_TYPE REUNION_WIND REUNION_PRES REUNION_TNUM REUNION_CI REUNION_RMW REUNION_R34_NE REUNION_R34_SE REUNION_R34_SW REUNION_R34_NW REUNION_R50_NE REUNION_R50_SE REUNION_R50_SW REUNION_R50_NW REUNION_R64_NE REUNION_R64_SE REUNION_R64_SW REUNION_R64_NW BOM_LAT BOM_LON BOM_TYPE BOM_WIND BOM_PRES BOM_TNUM BOM_CI BOM_RMW BOM_R34_NE BOM_R34_SE BOM_R34_SW BOM_R34_NW BOM_R50_NE BOM_R50_SE BOM_R50_SW BOM_R50_NW BOM_R64_NE BOM_R64_SE BOM_R64_SW BOM_R64_NW BOM_ROCI BOM_POCI BOM_EYE BOM_POS_METHOD BOM_PRES_METHOD NADI_LAT NADI_LON NADI_CAT NADI_WIND NADI_PRES WELLINGTON_LAT WELLINGTON_LON WELLINGTON_WIND WELLINGTON_PRES DS824_LAT DS824_LON DS824_STAGE DS824_WIND DS824_PRES TD9636_LAT TD9636_LON TD9636_STAGE TD9636_WIND TD9636_PRES TD9635_LAT TD9635_LON TD9635_WIND TD9635_PRES TD9635_ROCI NEUMANN_LAT NEUMANN_LON NEUMANN_CLASS NEUMANN_WIND NEUMANN_PRES MLC_LAT MLC_LON MLC_CLASS MLC_WIND MLC_PRES USA_GUST BOM_GUST BOM_GUST_PER REUNION_GUST REUNION_GUST_PER USA_SEAHGT USA_SEARAD_NE USA_SEARAD_SE USA_SEARAD_SW USA_SEARAD_NW STORM_SPEED STORM_DIR
1956205N22135 1956 61 WP MM NOT_NAMED 1956-07-23 06:00:00 TS 22.0000 134.500 main 1073 1051 __O___________ -1 22.0000 134.500 0 1006 14 270
1956205N22135 1956 61 WP MM NOT_NAMED 1956-07-23 09:00:00 TS 21.9958 133.735 main 1048 1030 __P___________ -1 21.9958 133.735 0 1006 14 270
1956205N22135 1956 61 WP MM NOT_NAMED 1956-07-23 12:00:00 TS 22.0000 133.000 main 1030 1019 __O___________ -1 22.0000 133.000 0 1006 13 271
1956205N22135 1956 61 WP MM NOT_NAMED 1956-07-23 15:00:00 TS 22.0147 132.320 main 1017 1010 __P___________ -1 22.0147 132.320 0 1006 12 270
1956205N22135 1956 61 WP MM NOT_NAMED 1956-07-23 18:00:00 TS 22.0000 131.700 main 1010 983 __O___________ -1 22.0000 131.700 0 1006 11 265
1956205N22135 1956 61 WP MM NOT_NAMED 1956-07-23 21:00:00 TS 21.9149 131.112 main 983 938 __P___________ -1 21.9149 131.112 0 1006 10 259
1956205N22135 1956 61 WP MM NOT_NAMED 1956-07-24 00:00:00 TS 21.8000 130.600 main 938 903 __O___________ -1 21.8000 130.600 0 1006 9 256
1956205N22135 1956 61 WP MM NOT_NAMED 1956-07-24 03:00:00 TS 21.6997 130.178 main 903 861 __P___________ -1 21.6997 130.178 0 1006 8 255
1956205N22135 1956 61 WP MM NOT_NAMED 1956-07-24 06:00:00 TS 21.6000 129.800 main 861 818 __O___________ -1 21.6000 129.800 0 1006 7 254
1956205N22135 1956 61 WP MM NOT_NAMED 1956-07-24 09:00:00 TS 21.4923 129.408 main 818 776 __P___________ -1 21.4923 129.408 0 1006 8 255
1956205N22135 1956 61 WP MM NOT_NAMED 1956-07-24 12:00:00 TS 21.4000 129.000 main 776 734 __O___________ -1 21.4000 129.000 0 1006 8 259
1956205N22135 1956 61 WP MM NOT_NAMED 1956-07-24 15:00:00 TS 21.3425 128.543 main 724 687 __P___________ -1 21.3425 128.543 0 1005 8 263
1956205N22135 1956 61 WP MM NOT_NAMED 1956-07-24 18:00:00 TS 21.3000 128.100 main 687 660 __O___________ -1 21.3000 128.100 0 1005 7 263
1956205N22135 1956 61 WP MM NOT_NAMED 1956-07-24 21:00:00 TS 21.2496 127.765 main 655 618 __P___________ -1 21.2496 127.765 0 1005 7 261
1956205N22135 1956 61 WP MM NOT_NAMED 1956-07-25 00:00:00 TS 21.2000 127.400 main 618 574 __O___________ -1 21.2000 127.400 0 1005 8 263
1956205N22135 1956 61 WP MM NOT_NAMED 1956-07-25 03:00:00 TS 21.1499 126.895 main 568 516 __P___________ -1 21.1499 126.895 0 1004 10 264
1956205N22135 1956 61 WP MM NOT_NAMED 1956-07-25 06:00:00 TS 21.1000 126.300 main 516 459 __O___________ -1 21.1000 126.300 0 1003 11 264
1956205N22135 1956 61 WP MM NOT_NAMED 1956-07-25 09:00:00 TS 21.0347 125.680 main 459 405 __P___________ -1 21.0347 125.680 0 1002 12 265
1956205N22135 1956 61 WP MM NOT_NAMED 1956-07-25 12:00:00 TS 21.0000 125.000 main 405 352 __O___________ -1 21.0000 125.000 1 29 1002 14 268
1956205N22135 1956 61 WP MM NOT_NAMED 1956-07-25 15:00:00 TS 20.9756 124.197 main 352 283 __P___________ -1 20.9756 124.197 1 29 1002 14 274
1956205N22135 1956 61 WP MM NOT_NAMED 1956-07-25 18:00:00 TS 21.1000 123.500 main 283 234 __O___________ -1 21.1000 123.500 1 29 1002 11 296
1956205N22135 1956 61 WP MM NOT_NAMED 1956-07-25 21:00:00 TS 21.4670 123.095 main 231 197 __P___________ -1 21.4670 123.095 1 29 1002 11 328
1956205N22135 1956 61 WP MM NOT_NAMED 1956-07-26 00:00:00 TS 22.0000 122.900 main 197 158 __O___________ -1 22.0000 122.900 1 29 1002 11 347
1956205N22135 1956 61 WP MM NOT_NAMED 1956-07-26 03:00:00 TS 22.5624 122.827 main 153 143 __P___________ -1 22.5624 122.827 1 29 1000 12 356
1956205N22135 1956 61 WP MM NOT_NAMED 1956-07-26 06:00:00 TS 23.2000 122.800 main 143 105 __O___________ -1 23.2000 122.800 1 29 999 14 356
1956205N22135 1956 61 WP MM NOT_NAMED 1956-07-26 09:00:00 TS 23.9072 122.717 main 105 60 __P___________ -1 23.9072 122.717 1 33 999 14 349
1956205N22135 1956 61 WP MM NOT_NAMED 1956-07-26 12:00:00 TS 24.6000 122.500 main 61 15 __O___________ -1 24.6000 122.500 2 38 999 15 335
1956205N22135 1956 61 WP MM NOT_NAMED 1956-07-26 15:00:00 TS 25.2254 122.031 main 22 22 __P___________ -1 25.2254 122.031 2 38 999 14 321
1956205N22135 1956 61 WP MM NOT_NAMED 1956-07-26 18:00:00 TS 25.7000 121.500 main 55 55 __O___________ -1 25.7000 121.500 2 38 999 11 312
1956205N22135 1956 61 WP MM NOT_NAMED 1956-07-26 21:00:00 TS 25.9673 121.119 main 94 89 __P___________ -1 25.9673 121.119 2 43 996 7 302
1956205N22135 1956 61 WP MM NOT_NAMED 1956-07-27 00:00:00 TS 26.1000 120.800 main 89 59 __O___________ -1 26.1000 120.800 3 48 994 6 295
1956205N22135 1956 61 WP MM NOT_NAMED 1956-07-27 03:00:00 TS 26.2147 120.515 main 59 34 __P___________ -1 26.2147 120.515 3 43 994 6 290
1956205N22135 1956 61 WP MM NOT_NAMED 1956-07-27 06:00:00 TS 26.3000 120.200 main 34 0 __O___________ -1 26.3000 120.200 2 38 994 7 285
1956205N22135 1956 61 WP MM NOT_NAMED 1956-07-27 09:00:00 TS 26.3925 119.772 main 0 0 __P___________ -1 26.3925 119.772 2 27 994 8 284
1956205N22135 1956 61 WP MM NOT_NAMED 1956-07-27 12:00:00 TS 26.5000 119.300 main 0 0 __O___________ -1 26.5000 119.300 0 17 994 9 286
1956205N22135 1956 61 WP MM NOT_NAMED 1956-07-27 15:00:00 TS 26.6273 118.857 main 0 0 __P___________ -1 26.6273 118.857 0 17 995 9 290
1956205N22135 1956 61 WP MM NOT_NAMED 1956-07-27 18:00:00 TS 26.8000 118.400 main 0 0 __O___________ -1 26.8000 118.400 0 17 996 9 295
1956205N22135 1956 61 WP MM NOT_NAMED 1956-07-27 21:00:00 TS 27.0198 117.915 main 0 0 __P___________ -1 27.0198 117.915 0 17 996 10 299
1956205N22135 1956 61 WP MM NOT_NAMED 1956-07-28 00:00:00 TS 27.3000 117.400 main 0 0 __O___________ -1 27.3000 117.400 0 17 996 11 303
1956205N22135 1956 61 WP MM NOT_NAMED 1956-07-28 03:00:00 TS 27.6355 116.858 main 0 0 __P___________ -1 27.6355 116.858 0 17 996 12 306
1956205N22135 1956 61 WP MM NOT_NAMED 1956-07-28 06:00:00 TS 28.0000 116.300 main 0 __O___________ -1 28.0000 116.300 0 17 996 12 306

デジタル台風データ・検索

IBTrACS Databaseについて

本データベースは、米国NOAAが公開する1842年以降の世界の熱帯低気圧のベストトラックデータアーカイブInternational Best Track Archive for Climate Stewardship (IBTrACS)を、ウェブで閲覧しやすい形式に変換したものです。

最終更新日:2021-10-21